createdAt,value
2023-04-23T00:02:06.585Z,97213.42
2023-04-23T00:04:38.505Z,97212.38
2023-04-23T00:07:07.226Z,97211.63
2023-04-23T00:09:36.117Z,97212.22
2023-04-23T00:12:04.806Z,97215.58
2023-04-23T00:14:33.395Z,97213.95
2023-04-23T00:17:01.561Z,97219.04
2023-04-23T00:19:29.555Z,97220.04
2023-04-23T00:21:57.921Z,97224.19
2023-04-23T00:24:26.394Z,97229.82
2023-04-23T00:26:54.521Z,97229.34
2023-04-23T00:29:23.049Z,97229.39
2023-04-23T00:31:51.372Z,97227.60
2023-04-23T00:34:19.911Z,97226.41
2023-04-23T00:36:51.380Z,97224.94
2023-04-23T00:39:19.638Z,97222.89
2023-04-23T00:41:51.707Z,97226.09
2023-04-23T00:44:20.104Z,97222.28
2023-04-23T00:46:48.464Z,97221.11
2023-04-23T00:49:18.378Z,97222.80
2023-04-23T00:51:47.475Z,97222.08
2023-04-23T00:54:15.696Z,97221.66
2023-04-23T00:56:43.822Z,97221.68
2023-04-23T00:59:12.097Z,97220.12
2023-04-23T01:01:41.134Z,97215.72
2023-04-23T01:04:09.812Z,97211.69
2023-04-23T01:06:39.600Z,97211.69
2023-04-23T01:09:10.121Z,97211.03
2023-04-23T01:11:43.426Z,97210.55
2023-04-23T01:14:12.413Z,97208.98
2023-04-23T01:16:41.208Z,97209.48
2023-04-23T01:19:11.009Z,97212.23
2023-04-23T01:21:42.988Z,97210.83
2023-04-23T01:24:11.981Z,97207.60
2023-04-23T01:26:40.833Z,97209.04
2023-04-23T01:29:10.588Z,97206.80
2023-04-23T01:31:38.641Z,97206.46
2023-04-23T01:34:08.150Z,97209.39
2023-04-23T01:36:36.700Z,97209.42
2023-04-23T01:39:05.827Z,97210.66
2023-04-23T01:41:34.738Z,97207.59
2023-04-23T01:44:02.996Z,97207.56
2023-04-23T01:46:31.550Z,97212.69
2023-04-23T01:49:00.276Z,97212.75
2023-04-23T01:51:30.010Z,97214.30
2023-04-23T01:53:58.155Z,97213.98
2023-04-23T01:56:28.372Z,97216.73
2023-04-23T01:58:57.062Z,97219.78
2023-04-23T02:01:25.444Z,97223.90
2023-04-23T02:03:54.624Z,97223.41
2023-04-23T02:06:22.733Z,97224.23
2023-04-23T02:08:51.725Z,97225.34
2023-04-23T02:11:20.010Z,97228.98
2023-04-23T02:13:48.280Z,97230.02
2023-04-23T02:16:18.127Z,97229.21
2023-04-23T02:18:46.452Z,97227.48
2023-04-23T02:21:14.748Z,97225.36
2023-04-23T02:23:43.018Z,97225.73
2023-04-23T02:26:11.177Z,97224.45
2023-04-23T02:28:39.167Z,97223.16
2023-04-23T02:31:07.542Z,97220.04
2023-04-23T02:33:35.801Z,97218.14
2023-04-23T02:36:04.298Z,97218.98
2023-04-23T02:38:32.372Z,97215.19
2023-04-23T02:41:00.544Z,97209.73
2023-04-23T02:43:29.320Z,97206.34
2023-04-23T02:46:00.367Z,97209.01
2023-04-23T02:48:29.894Z,97207.14
2023-04-23T02:50:58.451Z,97202.81
2023-04-23T02:53:26.654Z,97202.80
2023-04-23T02:55:54.703Z,97204.64
2023-04-23T02:58:25.886Z,97206.91
2023-04-23T03:00:54.882Z,97207.83
2023-04-23T03:03:26.718Z,97212.70
2023-04-23T03:05:55.400Z,97213.91
2023-04-23T03:08:23.764Z,97211.25
2023-04-23T03:10:51.792Z,97209.47
2023-04-23T03:13:19.892Z,97205.61
2023-04-23T03:15:48.933Z,97204.14
2023-04-23T03:18:17.078Z,97203.35
2023-04-23T03:20:47.617Z,97203.17
2023-04-23T03:23:16.693Z,97202.45
2023-04-23T03:25:45.393Z,97205.02
2023-04-23T03:28:13.606Z,97210.33
2023-04-23T03:30:42.696Z,97215.17
2023-04-23T03:33:12.946Z,97221.94
2023-04-23T03:35:41.615Z,97223.84
2023-04-23T03:38:13.632Z,97225.80
2023-04-23T03:40:42.430Z,97227.11
2023-04-23T03:43:20.532Z,97228.85
2023-04-23T03:46:11.884Z,97233.12
2023-04-23T03:48:41.773Z,97228.30
2023-04-23T03:51:14.124Z,97226.02
2023-04-23T03:53:49.150Z,97229.36
2023-04-23T03:56:34.745Z,97230.41
2023-04-23T03:59:15.624Z,97230.77
2023-04-23T04:01:44.676Z,97231.11
2023-04-23T04:04:12.926Z,97238.42
2023-04-23T04:06:41.534Z,97240.79
2023-04-23T04:09:09.598Z,97241.36
2023-04-23T04:11:37.946Z,97244.45
2023-04-23T04:14:06.180Z,97249.73
2023-04-23T04:16:34.394Z,97248.14
2023-04-23T04:19:03.757Z,97246.83
2023-04-23T04:21:33.384Z,97250.92
2023-04-23T04:24:11.659Z,97252.17
2023-04-23T04:26:40.279Z,97251.29
2023-04-23T04:29:17.468Z,97254.02
2023-04-23T04:31:48.435Z,97255.20
2023-04-23T04:34:18.261Z,97257.45
2023-04-23T04:36:46.997Z,97264.27
2023-04-23T04:39:15.178Z,97266.45
2023-04-23T04:41:43.668Z,97263.64
2023-04-23T04:44:11.738Z,97265.77
2023-04-23T04:46:40.554Z,97266.60
2023-04-23T04:49:12.438Z,97270.80
2023-04-23T04:51:41.579Z,97277.46
2023-04-23T04:54:09.832Z,97283.30
2023-04-23T04:56:37.925Z,97284.48
2023-04-23T04:59:06.109Z,97290.06
2023-04-23T05:01:34.707Z,97288.55
2023-04-23T05:04:03.998Z,97287.42
2023-04-23T05:06:32.646Z,97286.41
2023-04-23T05:09:00.859Z,97287.34
2023-04-23T05:11:30.752Z,97292.45
2023-04-23T05:13:59.923Z,97295.91
2023-04-23T05:16:28.261Z,97297.59
2023-04-23T05:18:56.416Z,97298.48
2023-04-23T05:21:24.470Z,97299.63
2023-04-23T05:23:52.576Z,97307.86
2023-04-23T05:26:20.812Z,97305.35
2023-04-23T05:28:49.213Z,97304.80
2023-04-23T05:31:17.290Z,97305.56
2023-04-23T05:33:50.527Z,97307.34
2023-04-23T05:36:19.164Z,97308.90
2023-04-23T05:38:48.480Z,97311.95
2023-04-23T05:41:16.769Z,97307.88
2023-04-23T05:43:53.921Z,97300.69
2023-04-23T05:46:22.437Z,97305.50
2023-04-23T05:48:50.576Z,97306.23
2023-04-23T05:51:19.057Z,97307.91
2023-04-23T05:53:47.224Z,97307.27
2023-04-23T05:56:15.398Z,97308.95
2023-04-23T05:58:43.725Z,97309.90
2023-04-23T06:01:12.510Z,97310.31
2023-04-23T06:03:45.466Z,97309.27
2023-04-23T06:06:14.268Z,97310.73
2023-04-23T06:08:42.318Z,97310.08
2023-04-23T06:11:11.011Z,97313.91
2023-04-23T06:13:43.557Z,97313.27
2023-04-23T06:16:12.074Z,97311.12
2023-04-23T06:18:40.354Z,97308.27
2023-04-23T06:21:09.225Z,97305.43
2023-04-23T06:23:37.418Z,97307.80
2023-04-23T06:26:05.898Z,97301.16
2023-04-23T06:28:34.671Z,97295.80
2023-04-23T06:31:22.128Z,97293.91
2023-04-23T06:33:50.375Z,97291.84
2023-04-23T06:36:18.410Z,97287.30
2023-04-23T06:38:49.186Z,97286.40
2023-04-23T06:41:17.730Z,97283.93
2023-04-23T06:43:46.107Z,97283.05
2023-04-23T06:46:32.216Z,97280.80
2023-04-23T06:49:00.314Z,97281.52
2023-04-23T06:51:28.691Z,97286.04
2023-04-23T06:53:56.887Z,97286.41
2023-04-23T06:56:26.946Z,97289.95
2023-04-23T06:58:55.460Z,97292.99
2023-04-23T07:01:23.907Z,97291.70
2023-04-23T07:03:54.694Z,97296.02
2023-04-23T07:06:23.080Z,97297.02
2023-04-23T07:08:51.323Z,97297.21
2023-04-23T07:11:19.826Z,97299.29
2023-04-23T07:13:48.980Z,97295.08
2023-04-23T07:16:18.072Z,97295.27
2023-04-23T07:18:47.542Z,97293.64
2023-04-23T07:21:16.132Z,97288.89
2023-04-23T07:23:44.190Z,97287.14
2023-04-23T07:26:12.687Z,97288.02
2023-04-23T07:28:40.959Z,97293.08
2023-04-23T07:31:09.338Z,97294.91
2023-04-23T07:33:37.522Z,97295.61
2023-04-23T07:36:05.991Z,97291.56
2023-04-23T07:38:34.175Z,97295.52
2023-04-23T07:41:02.967Z,97294.42
2023-04-23T07:43:31.090Z,97292.27
2023-04-23T07:45:59.317Z,97292.84
2023-04-23T07:48:27.334Z,97292.77
2023-04-23T07:50:55.859Z,97299.16
2023-04-23T07:53:24.025Z,97299.23
2023-04-23T07:55:52.605Z,97297.69
2023-04-23T07:58:20.781Z,97297.48
2023-04-23T08:00:48.872Z,97297.57
2023-04-23T08:03:17.016Z,97302.55
2023-04-23T08:05:45.686Z,97303.92
2023-04-23T08:08:14.044Z,97304.31
2023-04-23T08:10:42.269Z,97300.75
2023-04-23T08:13:11.221Z,97302.43
2023-04-23T08:15:39.572Z,97306.27
2023-04-23T08:18:07.820Z,97306.56
2023-04-23T08:20:38.141Z,97306.02
2023-04-23T08:23:07.177Z,97306.30
2023-04-23T08:25:35.292Z,97303.87
2023-04-23T08:28:03.937Z,97303.75
2023-04-23T08:30:32.220Z,97302.77
2023-04-23T08:33:00.592Z,97299.33
2023-04-23T08:35:29.027Z,97300.27
2023-04-23T08:37:57.100Z,97294.54
2023-04-23T08:40:30.347Z,97293.37
2023-04-23T08:43:02.872Z,97286.50
2023-04-23T08:45:31.154Z,97286.73
2023-04-23T08:48:02.524Z,97291.83
2023-04-23T08:50:31.308Z,97291.84
2023-04-23T08:52:59.561Z,97288.19
2023-04-23T08:55:27.746Z,97286.70
2023-04-23T08:57:58.553Z,97279.73
2023-04-23T09:00:26.973Z,97276.63
2023-04-23T09:02:56.228Z,97271.13
2023-04-23T09:05:24.838Z,97269.27
2023-04-23T09:07:54.034Z,97268.27
2023-04-23T09:10:22.721Z,97266.45
2023-04-23T09:12:51.082Z,97267.54
2023-04-23T09:15:19.385Z,97265.83
2023-04-23T09:17:48.508Z,97262.27
2023-04-23T09:20:17.361Z,97258.46
2023-04-23T09:22:48.332Z,97256.80
2023-04-23T09:25:21.860Z,97257.48
2023-04-23T09:27:51.609Z,97256.59
2023-04-23T09:30:20.243Z,97253.11
2023-04-23T09:32:49.524Z,97251.12
2023-04-23T09:35:20.245Z,97251.48
2023-04-23T09:37:52.552Z,97248.06
2023-04-23T09:40:25.142Z,97247.79
2023-04-23T09:42:56.555Z,97246.43
2023-04-23T09:45:27.538Z,97246.81
2023-04-23T09:47:57.951Z,97243.48
2023-04-23T09:50:38.594Z,97242.31
2023-04-23T09:53:08.793Z,97239.60
2023-04-23T09:55:39.464Z,97237.27
2023-04-23T09:58:12.620Z,97234.81
2023-04-23T10:00:41.518Z,97234.59
2023-04-23T10:03:11.305Z,97230.73
2023-04-23T10:08:14.078Z,97221.74
2023-04-23T10:10:57.605Z,97215.73
2023-04-23T10:13:32.373Z,97211.46
2023-04-23T10:16:14.052Z,97208.36
2023-04-23T10:18:47.845Z,97208.94
2023-04-23T10:21:17.694Z,97205.93
2023-04-23T10:23:48.497Z,97200.81
2023-04-23T10:26:17.419Z,97200.55
2023-04-23T10:28:49.094Z,97197.34
2023-04-23T10:31:19.890Z,97188.86
2023-04-23T10:36:25.924Z,97187.77
2023-04-23T10:38:59.024Z,97182.52
2023-04-23T10:41:35.953Z,97187.94
2023-04-23T10:44:05.643Z,97183.84
2023-04-23T10:46:37.144Z,97177.30
2023-04-23T10:49:17.081Z,97175.71
2023-04-23T10:54:19.983Z,97171.30
2023-04-23T10:56:59.304Z,97167.92
2023-04-23T10:59:32.180Z,97159.49
2023-04-23T11:02:10.758Z,97156.73
2023-04-23T11:04:45.113Z,97156.28
2023-04-23T11:07:14.132Z,97154.90
2023-04-23T11:09:49.462Z,97151.38
2023-04-23T11:12:40.034Z,97147.94
2023-04-23T11:15:16.148Z,97146.61
2023-04-23T11:17:44.269Z,97146.81
2023-04-23T11:20:19.669Z,97148.22
2023-04-23T11:22:50.352Z,97144.87
2023-04-23T11:25:25.318Z,97143.36
2023-04-23T11:27:55.870Z,97144.63
2023-04-23T11:30:30.880Z,97146.61
2023-04-23T11:33:01.536Z,97143.96
2023-04-23T11:35:33.584Z,97141.83
2023-04-23T11:38:08.324Z,97142.80
2023-04-23T11:40:37.443Z,97143.17
2023-04-23T11:43:05.587Z,97142.23
2023-04-23T11:45:33.874Z,97145.67
2023-04-23T11:48:02.062Z,97144.86
2023-04-23T11:50:33.719Z,97142.77
2023-04-23T11:53:07.693Z,97142.15
2023-04-23T11:55:35.871Z,97140.53
2023-04-23T11:58:04.444Z,97139.39
2023-04-23T12:00:32.524Z,97141.80
2023-04-23T12:03:03.539Z,97140.74
2023-04-23T12:05:39.299Z,97142.16
2023-04-23T12:08:16.750Z,97144.42
2023-04-23T12:10:52.988Z,97141.02
2023-04-23T12:13:24.307Z,97140.64
2023-04-23T12:15:56.672Z,97137.01
2023-04-23T12:18:44.197Z,97133.30
2023-04-23T12:21:13.620Z,97128.99
2023-04-23T12:23:44.784Z,97125.94
2023-04-23T12:26:15.783Z,97128.27
2023-04-23T12:28:58.123Z,97123.58
2023-04-23T12:31:30.624Z,97122.19
2023-04-23T12:34:02.347Z,97120.29
2023-04-23T12:36:40.930Z,97120.26
2023-04-23T12:39:31.314Z,97116.80
2023-04-23T12:42:03.172Z,97112.61
2023-04-23T12:44:36.129Z,97110.17
2023-04-23T12:47:05.976Z,97107.98
2023-04-23T12:49:36.086Z,97102.86
2023-04-23T12:52:07.920Z,97100.59
2023-04-23T12:54:38.320Z,97097.23
2023-04-23T12:57:08.277Z,97094.04
2023-04-23T12:59:36.419Z,97090.36
2023-04-23T13:02:06.953Z,97089.50
2023-04-23T13:04:36.759Z,97082.77
2023-04-23T13:07:05.031Z,97079.48
2023-04-23T13:09:35.967Z,97076.03
2023-04-23T13:12:04.561Z,97072.42
2023-04-23T13:14:32.782Z,97067.86
2023-04-23T13:17:01.212Z,97062.72
2023-04-23T13:19:29.657Z,97058.98
2023-04-23T13:21:57.684Z,97053.08
2023-04-23T13:24:25.719Z,97050.40
2023-04-23T13:26:53.991Z,97047.94
2023-04-23T13:29:22.183Z,97043.27
2023-04-23T13:31:51.437Z,97044.46
2023-04-23T13:34:19.770Z,97039.59
2023-04-23T13:36:48.041Z,97042.04
2023-04-23T13:39:16.211Z,97045.70
2023-04-23T13:41:46.494Z,97039.33
2023-04-23T13:44:15.793Z,97042.52
2023-04-23T13:46:43.915Z,97039.44
2023-04-23T13:49:12.295Z,97036.05
2023-04-23T13:51:40.467Z,97040.33
2023-04-23T13:54:08.413Z,97039.52
2023-04-23T13:56:37.226Z,97034.13
2023-04-23T13:59:18.797Z,97033.86
2023-04-23T14:01:51.496Z,97028.95
2023-04-23T14:04:24.557Z,97027.33
2023-04-23T14:06:53.078Z,97026.84
2023-04-23T14:09:22.654Z,97024.52
2023-04-23T14:11:50.921Z,97023.63
2023-04-23T14:14:19.293Z,97022.52
2023-04-23T14:16:47.407Z,97020.88
2023-04-23T14:19:15.684Z,97018.52
2023-04-23T14:21:44.230Z,97016.24
2023-04-23T14:24:39.170Z,97016.16
2023-04-23T14:27:07.137Z,97015.30
2023-04-23T14:29:41.325Z,97012.48
2023-04-23T14:32:09.645Z,97015.14
2023-04-23T14:34:37.697Z,97019.06
2023-04-23T14:37:06.220Z,97019.16
2023-04-23T14:39:34.985Z,97020.38
2023-04-23T14:42:03.655Z,97020.70
2023-04-23T14:44:31.834Z,97020.90
2023-04-23T14:46:59.829Z,97017.94
2023-04-23T14:49:27.894Z,97019.29
2023-04-23T14:51:57.841Z,97018.52
2023-04-23T14:54:26.173Z,97022.48
2023-04-23T14:56:54.445Z,97021.79
2023-04-23T14:59:23.748Z,97019.78
2023-04-23T15:01:51.986Z,97017.50
2023-04-23T15:04:20.306Z,97018.52
2023-04-23T15:06:48.486Z,97019.98
2023-04-23T15:09:17.056Z,97016.98
2023-04-23T15:11:45.641Z,97016.64
2023-04-23T15:14:20.790Z,97020.94
2023-04-23T15:16:50.025Z,97017.67
2023-04-23T15:19:19.183Z,97020.06
2023-04-23T15:21:48.120Z,97018.78
2023-04-23T15:24:17.034Z,97019.66
2023-04-23T15:26:48.815Z,97013.38
2023-04-23T15:29:17.003Z,97013.58
2023-04-23T15:31:45.190Z,97011.35
2023-04-23T15:34:13.442Z,97008.05
2023-04-23T15:36:41.632Z,97009.14
2023-04-23T15:39:09.802Z,97004.03
2023-04-23T15:41:40.513Z,97001.14
2023-04-23T15:44:13.285Z,97000.66
2023-04-23T15:46:41.513Z,96994.27
2023-04-23T15:49:09.662Z,96992.65
2023-04-23T15:51:37.796Z,96992.47
2023-04-23T15:54:08.705Z,96992.39
2023-04-23T15:56:37.292Z,96993.09
2023-04-23T15:59:06.257Z,96989.11
2023-04-23T16:01:34.565Z,96992.98
2023-04-23T16:06:34.630Z,96999.98
2023-04-23T16:09:06.890Z,97005.51
2023-04-23T16:11:39.101Z,97005.27
2023-04-23T16:14:09.593Z,97009.77
2023-04-23T16:16:38.881Z,97011.54
2023-04-23T16:19:07.202Z,97008.70
2023-04-23T16:21:35.702Z,97008.61
2023-04-23T16:24:04.691Z,97006.27
2023-04-23T16:26:32.646Z,97007.02
2023-04-23T16:31:32.111Z,97000.73
2023-04-23T16:34:00.573Z,97000.86
2023-04-23T16:36:28.871Z,96996.87
2023-04-23T16:38:57.325Z,97000.93
2023-04-23T16:41:25.594Z,97001.06
2023-04-23T16:43:53.878Z,96998.85
2023-04-23T16:46:22.129Z,97000.44
2023-04-23T16:48:50.845Z,97002.02
2023-04-23T16:51:18.925Z,97002.15
2023-04-23T16:53:46.990Z,96999.19
2023-04-23T16:56:15.203Z,96995.14
2023-04-23T16:58:43.665Z,96995.65
2023-04-23T17:01:12.048Z,96995.33
2023-04-23T17:03:40.810Z,96997.57
2023-04-23T17:06:11.268Z,96999.45
2023-04-23T17:08:39.918Z,96999.02
2023-04-23T17:11:08.391Z,96994.96
2023-04-23T17:13:36.472Z,96998.48
2023-04-23T17:16:04.457Z,96998.04
2023-04-23T17:18:32.605Z,96999.30
2023-04-23T17:21:00.883Z,97001.13
2023-04-23T17:23:29.005Z,97001.27
2023-04-23T17:25:57.130Z,96998.95
2023-04-23T17:28:25.509Z,97004.27
2023-04-23T17:30:55.881Z,97003.90
2023-04-23T17:33:24.536Z,97003.45
2023-04-23T17:35:53.821Z,97003.62
2023-04-23T17:38:22.446Z,97003.64
2023-04-23T17:40:52.583Z,97005.09
2023-04-23T17:43:21.670Z,97007.71
2023-04-23T17:45:49.981Z,97007.33
2023-04-23T17:48:18.891Z,97009.52
2023-04-23T17:50:47.994Z,97010.09
2023-04-23T17:53:16.525Z,97013.50
2023-04-23T17:55:46.088Z,97016.56
2023-04-23T17:58:14.289Z,97017.73
2023-04-23T18:00:43.350Z,97023.92
2023-04-23T18:03:16.481Z,97037.27
2023-04-23T18:05:45.440Z,97043.84
2023-04-23T18:08:16.384Z,97048.41
2023-04-23T18:10:46.086Z,97047.27
2023-04-23T18:13:14.765Z,97043.33
2023-04-23T18:15:43.046Z,97045.52
2023-04-23T18:18:11.484Z,97044.73
2023-04-23T18:20:40.410Z,97047.95
2023-04-23T18:23:09.818Z,97051.05
2023-04-23T18:25:37.801Z,97049.71
2023-04-23T18:28:05.956Z,97050.76
2023-04-23T18:30:36.818Z,97043.35
2023-04-23T18:33:21.517Z,97044.25
2023-04-23T18:35:49.737Z,97047.55
2023-04-23T18:38:37.577Z,97044.24
2023-04-23T18:41:05.952Z,97042.50
2023-04-23T18:43:34.736Z,97040.40
2023-04-23T18:46:03.180Z,97043.54
2023-04-23T18:48:34.382Z,97042.35
2023-04-23T18:51:13.516Z,97042.02
2023-04-23T18:53:41.397Z,97041.75
2023-04-23T18:56:09.644Z,97044.05
2023-04-23T18:58:37.716Z,97041.84
2023-04-23T19:01:06.172Z,97041.84
2023-04-23T19:03:34.977Z,97042.55
2023-04-23T19:06:07.674Z,97036.44
2023-04-23T19:08:36.250Z,97037.89
2023-04-23T19:11:05.056Z,97040.08
2023-04-23T19:13:33.161Z,97041.25
2023-04-23T19:16:01.514Z,97039.70
2023-04-23T19:18:29.766Z,97041.10
2023-04-23T19:20:58.502Z,97041.14
2023-04-23T19:23:26.788Z,97041.20
2023-04-23T19:25:55.514Z,97042.48
2023-04-23T19:28:27.379Z,97041.95
2023-04-23T19:30:55.792Z,97042.92
2023-04-23T19:33:24.060Z,97042.13
2023-04-23T19:35:55.357Z,97044.56
2023-04-23T19:38:23.426Z,97042.16
2023-04-23T19:40:51.832Z,97044.52
2023-04-23T19:43:20.211Z,97043.16
2023-04-23T19:45:48.163Z,97041.22
2023-04-23T19:48:16.354Z,97038.11
2023-04-23T19:50:44.434Z,97038.84
2023-04-23T19:53:12.890Z,97035.34
2023-04-23T19:55:41.350Z,97035.65
2023-04-23T19:58:09.617Z,97032.50
2023-04-23T20:00:40.330Z,97029.27
2023-04-23T20:03:09.790Z,97026.64
2023-04-23T20:05:38.603Z,97023.11
2023-04-23T20:08:11.200Z,97023.00
2023-04-23T20:10:39.253Z,97024.17
2023-04-23T20:13:07.831Z,97024.64
2023-04-23T20:15:36.838Z,97024.86
2023-04-23T20:18:05.739Z,97020.31
2023-04-23T20:20:34.147Z,97019.50
2023-04-23T20:23:02.370Z,97014.44
2023-04-23T20:25:32.190Z,97013.79
2023-04-23T20:28:08.344Z,97015.36
2023-04-23T20:30:37.232Z,97013.58
2023-04-23T20:33:06.163Z,97011.02
2023-04-23T20:35:36.345Z,97004.92
2023-04-23T20:38:04.523Z,97007.27
2023-04-23T20:40:34.642Z,97005.42
2023-04-23T20:43:04.694Z,97002.65
2023-04-23T20:45:34.793Z,97000.96
2023-04-23T20:48:03.768Z,97004.55
2023-04-23T20:50:32.856Z,97005.35
2023-04-23T20:53:01.093Z,97003.50
2023-04-23T20:55:29.193Z,97005.13
2023-04-23T20:57:57.508Z,97006.03
2023-04-23T21:00:27.903Z,97003.81
2023-04-23T21:02:56.103Z,97005.46
2023-04-23T21:05:24.309Z,97004.80
2023-04-23T21:07:53.079Z,97003.52
2023-04-23T21:10:21.355Z,97002.43
2023-04-23T21:12:49.646Z,97002.02
2023-04-23T21:15:18.606Z,97003.45
2023-04-23T21:17:46.589Z,97004.23
2023-04-23T21:20:14.815Z,97006.30
2023-04-23T21:22:43.044Z,97005.54
2023-04-23T21:25:11.112Z,97004.34
2023-04-23T21:27:39.689Z,97003.84
2023-04-23T21:30:21.277Z,96999.47
2023-04-23T21:32:52.163Z,96998.98
2023-04-23T21:35:20.640Z,96996.22
2023-04-23T21:37:48.775Z,96995.50
2023-04-23T21:40:16.853Z,96991.83
2023-04-23T21:42:46.374Z,96992.21
2023-04-23T21:45:14.618Z,96989.91
2023-04-23T21:47:42.871Z,96993.05
2023-04-23T21:50:11.600Z,96993.39
2023-04-23T21:52:43.144Z,96992.96
2023-04-23T21:55:13.373Z,96989.27
2023-04-23T21:57:41.487Z,96987.95
2023-04-23T22:00:13.832Z,96985.39
2023-04-23T22:02:48.257Z,96982.30
2023-04-23T22:05:21.314Z,96978.73
2023-04-23T22:07:53.604Z,96979.33
2023-04-23T22:10:23.647Z,96977.55
2023-04-23T22:12:52.128Z,96975.55
2023-04-23T22:15:20.765Z,96976.21
2023-04-23T22:17:50.763Z,96977.89
2023-04-23T22:20:19.476Z,96974.98
2023-04-23T22:22:47.544Z,96974.05
2023-04-23T22:25:17.561Z,96973.54
2023-04-23T22:27:45.677Z,96977.55
2023-04-23T22:30:14.523Z,96977.98
2023-04-23T22:32:42.738Z,96976.92
2023-04-23T22:35:11.046Z,96974.23
2023-04-23T22:37:39.767Z,96973.90
2023-04-23T22:40:09.657Z,96977.56
2023-04-23T22:42:37.876Z,96973.80
2023-04-23T22:45:07.200Z,96968.96
2023-04-23T22:47:35.375Z,96966.27
2023-04-23T22:50:04.114Z,96966.55
2023-04-23T22:52:32.820Z,96965.29
2023-04-23T22:55:01.084Z,96962.63
2023-04-23T22:57:29.563Z,96964.17
2023-04-23T22:59:57.844Z,96964.83
2023-04-23T23:02:26.948Z,96963.06
2023-04-23T23:04:56.251Z,96960.73
2023-04-23T23:07:24.308Z,96958.20
2023-04-23T23:09:52.388Z,96954.30
2023-04-23T23:12:20.522Z,96955.42
2023-04-23T23:14:48.483Z,96957.70
2023-04-23T23:17:16.800Z,96954.27
2023-04-23T23:19:45.092Z,96950.98
2023-04-23T23:22:13.664Z,96949.30
2023-04-23T23:24:41.699Z,96945.90
2023-04-23T23:27:09.908Z,96946.27
2023-04-23T23:29:38.128Z,96948.17
2023-04-23T23:32:06.256Z,96942.64
2023-04-23T23:34:34.536Z,96940.34
2023-04-23T23:37:02.708Z,96934.58
2023-04-23T23:39:30.882Z,96928.81
2023-04-23T23:41:59.852Z,96931.98
2023-04-23T23:44:28.156Z,96929.52
2023-04-23T23:46:56.413Z,96930.30
2023-04-23T23:49:24.722Z,96927.00
2023-04-23T23:51:52.881Z,96927.27
2023-04-23T23:54:20.953Z,96924.63
2023-04-23T23:56:48.981Z,96919.80
2023-04-23T23:59:17.418Z,96918.43
